NetherlandsFixed distance
Kennedymars
11 Apr1998
Distance
80km
Finishers
7471 men3 women
Winning time
7:57:35h
Median pace
7.99km/h
Pace distribution
74 finishers · 6.77–10.05 km/h · mean 8.02
Every finisher ran the same 80 km course, so these paces are directly comparable.
Histogram of finisher pace. 74 finishers ranged from 6.77 to 10.05 kilometres per hour, with a mean of 8.02 and a median of 7.99. The busiest band is 8.0 to 8.5 kilometres per hour, with 20 finishers.
Results
Ranks 1–50 of 74
| Rank | Runner | Time | Pace | Cat. | Placing |
|---|---|---|---|---|---|
| 1 | *Volharding | 7:57:35h | 10.05 | M23 | 1st M · 1st M23 |
| 2 | Unitas | 8:16:25h | 9.67 | M23 | 2nd M · 2nd M23 |
| 3 | VAV | 8:25:33h | 9.49 | — | 3rd M |
| 4 | RWV | 8:25:48h | 9.49 | M35 | 4th M · 1st M35 |
| 5 | RWV | 8:26:27h | 9.48 | M45 | 5th M · 1st M45 |
| 6 | RWV | 8:44:32h | 9.15 | W45 | 1st F · 1st W45 |
| 7 | *Cifla | 9:01:35h | 8.86 | M40 | 6th M · 1st M40 |
| 8 | RWV | 9:05:57h | 8.79 | — | 7th M |
| 9 | RWV | 9:10:20h | 8.72 | M55 | 8th M · 1st M55 |
| 10 | RWV | 9:11:14h | 8.71 | M60 | 9th M · 1st M60 |
| 11 | Unitas | 9:17:08h | 8.62 | M35 | 10th M · 2nd M35 |
| 12 | RWV | 9:18:59h | 8.59 | M55 | 11th M · 2nd M55 |
| 13 | 9:20:12h | 8.57 | — | 12th M | |
| 14 | 9:22:31h | 8.53 | — | 13th M | |
| 15 | *Weert | 9:23:41h | 8.52 | M50 | 14th M · 1st M50 |
| 16 | 9:24:42h | 8.50 | M50 | 15th M · 2nd M50 | |
| 17 | 9:26:11h | 8.48 | — | 16th M | |
| 18 | 9:26:46h | 8.47 | — | 17th M | |
| 19 | 9:27:02h | 8.46 | — | 18th M | |
| 20 | 9:27:29h | 8.46 | M45 | 19th M · 2nd M45 | |
| 21 | Unitas | 9:29:50h | 8.42 | M45 | 20th M · 3rd M45 |
| 22 | 9:32:45h | 8.38 | — | 21st M | |
| 23 | RWV | 9:36:13h | 8.33 | — | 22nd M |
| 24 | Avantri | 9:43:49h | 8.22 | M55 | 23rd M · 3rd M55 |
| 25 | Olat | 9:44:35h | 8.21 | M50 | 24th M · 3rd M50 |
| 26 | 9:44:35h | 8.21 | — | 24th M | |
| 27 | Olat | 9:46:02h | 8.19 | M60 | 26th M · 2nd M60 |
| 28 | 9:47:45h | 8.17 | — | 27th M | |
| 29 | 9:47:45h | 8.17 | — | 27th M | |
| 30 | RWV | 9:47:46h | 8.17 | M50 | 29th M · 4th M50 |
| 31 | 9:50:06h | 8.13 | — | 30th M | |
| 32 | RWV | 9:50:12h | 8.13 | M45 | 31st M · 4th M45 |
| 33 | RWV | 9:53:44h | 8.08 | — | 32nd M |
| 34 | Olat | 9:54:51h | 8.07 | M55 | 33rd M · 4th M55 |
| 35 | DE LAT | 9:56:11h | 8.05 | W40 | 2nd F · 1st W40 |
| 36 | Unitas | 9:57:00h | 8.04 | — | 34th M |
| 37 | RWV | 10:00:13h | 8.00 | M45 | 35th M · 5th M45 |
| 38 | 10:01:02h | 7.99 | M65 | 36th M · 1st M65 | |
| 39 | 10:02:38h | 7.96 | — | 37th M | |
| 40 | Unitas | 10:04:14h | 7.94 | M23 | 38th M · 3rd M23 |
| 41 | 10:04:14h | 7.94 | — | 38th M | |
| 42 | 10:08:42h | 7.89 | — | 40th M | |
| 43 | Olat | 10:09:14h | 7.88 | M45 | 41st M · 6th M45 |
| 44 | Olat | 10:10:41h | 7.86 | M60 | 42nd M · 3rd M60 |
| 45 | DE LAT | 10:14:05h | 7.82 | M55 | 43rd M · 5th M55 |
| 46 | 10:14:48h | 7.81 | — | 44th M | |
| 47 | RWV | 10:19:03h | 7.75 | M23 | 45th M · 4th M23 |
| 48 | 10:23:08h | 7.70 | — | 46th M | |
| 49 | 10:25:51h | 7.67 | — | 47th M | |
| 50 | 10:25:52h | 7.67 | — | 48th M |
- 1*Volharding1st M · 1st M23Time7:57:35hPace10.05Cat.M23
- 2Unitas2nd M · 2nd M23Time8:16:25hPace9.67Cat.M23
- 3VAV3rd MTime8:25:33hPace9.49
- 4RWV4th M · 1st M35Time8:25:48hPace9.49Cat.M35
- 5RWV5th M · 1st M45Time8:26:27hPace9.48Cat.M45
- 6RWV1st F · 1st W45Time8:44:32hPace9.15Cat.W45
- 7*Cifla6th M · 1st M40Time9:01:35hPace8.86Cat.M40
- 8RWV7th MTime9:05:57hPace8.79
- 9RWV8th M · 1st M55Time9:10:20hPace8.72Cat.M55
- 10RWV9th M · 1st M60Time9:11:14hPace8.71Cat.M60
- 11Unitas10th M · 2nd M35Time9:17:08hPace8.62Cat.M35
- 12RWV11th M · 2nd M55Time9:18:59hPace8.59Cat.M55
- 1312th MTime9:20:12hPace8.57
- 1413th MTime9:22:31hPace8.53
- 15*Weert14th M · 1st M50Time9:23:41hPace8.52Cat.M50
- 1615th M · 2nd M50Time9:24:42hPace8.50Cat.M50
- 1716th MTime9:26:11hPace8.48
- 1817th MTime9:26:46hPace8.47
- 1918th MTime9:27:02hPace8.46
- 2019th M · 2nd M45Time9:27:29hPace8.46Cat.M45
- 21Unitas20th M · 3rd M45Time9:29:50hPace8.42Cat.M45
- 2221st MTime9:32:45hPace8.38
- 23RWV22nd MTime9:36:13hPace8.33
- 24Avantri23rd M · 3rd M55Time9:43:49hPace8.22Cat.M55
- 25Olat24th M · 3rd M50Time9:44:35hPace8.21Cat.M50
- 2624th MTime9:44:35hPace8.21
- 27Olat26th M · 2nd M60Time9:46:02hPace8.19Cat.M60
- 2827th MTime9:47:45hPace8.17
- 2927th MTime9:47:45hPace8.17
- 30RWV29th M · 4th M50Time9:47:46hPace8.17Cat.M50
- 3130th MTime9:50:06hPace8.13
- 32RWV31st M · 4th M45Time9:50:12hPace8.13Cat.M45
- 33RWV32nd MTime9:53:44hPace8.08
- 34Olat33rd M · 4th M55Time9:54:51hPace8.07Cat.M55
- 35DE LAT2nd F · 1st W40Time9:56:11hPace8.05Cat.W40
- 36Unitas34th MTime9:57:00hPace8.04
- 37RWV35th M · 5th M45Time10:00:13hPace8.00Cat.M45
- 3836th M · 1st M65Time10:01:02hPace7.99Cat.M65
- 3937th MTime10:02:38hPace7.96
- 40Unitas38th M · 3rd M23Time10:04:14hPace7.94Cat.M23
- 4138th MTime10:04:14hPace7.94
- 4240th MTime10:08:42hPace7.89
- 43Olat41st M · 6th M45Time10:09:14hPace7.88Cat.M45
- 44Olat42nd M · 3rd M60Time10:10:41hPace7.86Cat.M60
- 45DE LAT43rd M · 5th M55Time10:14:05hPace7.82Cat.M55
- 4644th MTime10:14:48hPace7.81
- 47RWV45th M · 4th M23Time10:19:03hPace7.75Cat.M23
- 4846th MTime10:23:08hPace7.70
- 4947th MTime10:25:51hPace7.67
- 5048th MTime10:25:52hPace7.67
Showing ranks 1–50 of 74